Louann, Arkansas
Current Conditions -  °F | °C
As of 11:53 AM on Friday 28 Nov 2014 (Local Time) from KELD Reporting Station
Clear Clear  
Wind Chill: 55°   Ceiling: Unl
Heat Index: 55°   Visibility: 10mi
Dew Point: 33°   Wind: 13mph
Humidity: 43%   Direction: 180°S
Pressure: 30.28"   Gusts: NA
Location:  33.39°N, 92.79°W
Report Text: KELD 281753Z AUTO 18011KT 10SM CLR 13/01 A3028 RMK AO2 SLP255 T01280006 10128 21006 58030
Loading
Personal Weather Stations






























Interactive Weather Map New forecast layout! Learn more

10-Day Weather Forecast

Advertisements
Track Severe Weather on mobile